sensor_id;sensor_type;location;lat;lon;timestamp;temperature;humidity
1123;DHT22;548;48.778;9.252;2022-08-19T00:01:12;22.70;99.90
1123;DHT22;548;48.778;9.252;2022-08-19T00:03:40;22.70;99.90
1123;DHT22;548;48.778;9.252;2022-08-19T00:06:07;22.70;99.90
1123;DHT22;548;48.778;9.252;2022-08-19T00:08:34;22.60;99.90
1123;DHT22;548;48.778;9.252;2022-08-19T00:11:01;22.60;99.90
1123;DHT22;548;48.778;9.252;2022-08-19T00:13:27;22.60;99.90
1123;DHT22;548;48.778;9.252;2022-08-19T00:15:54;22.60;99.90
1123;DHT22;548;48.778;9.252;2022-08-19T00:18:21;22.60;99.90
1123;DHT22;548;48.778;9.252;2022-08-19T00:20:49;22.60;99.90
1123;DHT22;548;48.778;9.252;2022-08-19T00:23:16;22.60;99.90
1123;DHT22;548;48.778;9.252;2022-08-19T00:25:43;22.50;99.90
1123;DHT22;548;48.778;9.252;2022-08-19T00:28:09;22.60;99.90
1123;DHT22;548;48.778;9.252;2022-08-19T00:30:36;22.50;99.90
1123;DHT22;548;48.778;9.252;2022-08-19T00:33:03;22.50;99.90
1123;DHT22;548;48.778;9.252;2022-08-19T00:35:30;22.50;99.90
1123;DHT22;548;48.778;9.252;2022-08-19T00:37:58;22.50;99.90
1123;DHT22;548;48.778;9.252;2022-08-19T00:40:26;22.50;99.90
1123;DHT22;548;48.778;9.252;2022-08-19T00:42:52;22.50;99.90
1123;DHT22;548;48.778;9.252;2022-08-19T00:45:22;22.40;99.90
1123;DHT22;548;48.778;9.252;2022-08-19T00:47:49;22.40;99.90
1123;DHT22;548;48.778;9.252;2022-08-19T00:50:18;22.40;99.90
1123;DHT22;548;48.778;9.252;2022-08-19T00:52:48;22.40;99.90
1123;DHT22;548;48.778;9.252;2022-08-19T00:55:19;22.40;99.90
1123;DHT22;548;48.778;9.252;2022-08-19T00:57:49;22.40;99.90
1123;DHT22;548;48.778;9.252;2022-08-19T01:00:32;22.40;99.90
1123;DHT22;548;48.778;9.252;2022-08-19T01:03:02;22.50;99.90
1123;DHT22;548;48.778;9.252;2022-08-19T01:05:29;22.50;99.90
1123;DHT22;548;48.778;9.252;2022-08-19T01:07:57;22.50;99.90
1123;DHT22;548;48.778;9.252;2022-08-19T01:10:29;22.50;99.90
1123;DHT22;548;48.778;9.252;2022-08-19T01:12:58;22.50;99.90
1123;DHT22;548;48.778;9.252;2022-08-19T01:15:29;22.50;99.90
1123;DHT22;548;48.778;9.252;2022-08-19T01:17:57;22.40;99.90
1123;DHT22;548;48.778;9.252;2022-08-19T01:20:26;22.50;99.90
1123;DHT22;548;48.778;9.252;2022-08-19T01:22:56;22.40;99.90
1123;DHT22;548;48.778;9.252;2022-08-19T01:25:27;22.40;99.90
1123;DHT22;548;48.778;9.252;2022-08-19T01:27:55;22.40;99.90
1123;DHT22;548;48.778;9.252;2022-08-19T01:30:25;22.40;99.90
1123;DHT22;548;48.778;9.252;2022-08-19T01:32:52;22.40;99.90
1123;DHT22;548;48.778;9.252;2022-08-19T01:35:20;22.50;99.90
1123;DHT22;548;48.778;9.252;2022-08-19T01:37:52;22.50;99.90
1123;DHT22;548;48.778;9.252;2022-08-19T01:40:23;22.50;99.90
1123;DHT22;548;48.778;9.252;2022-08-19T01:42:52;22.40;99.90
1123;DHT22;548;48.778;9.252;2022-08-19T01:45:20;22.40;99.90
1123;DHT22;548;48.778;9.252;2022-08-19T01:47:47;22.40;99.90
1123;DHT22;548;48.778;9.252;2022-08-19T01:50:14;22.40;99.90
1123;DHT22;548;48.778;9.252;2022-08-19T01:52:43;22.30;99.90
1123;DHT22;548;48.778;9.252;2022-08-19T01:55:12;22.40;99.90
1123;DHT22;548;48.778;9.252;2022-08-19T01:57:44;22.30;99.90
1123;DHT22;548;48.778;9.252;2022-08-19T02:00:15;22.30;99.90
1123;DHT22;548;48.778;9.252;2022-08-19T02:02:43;22.30;99.90
1123;DHT22;548;48.778;9.252;2022-08-19T02:05:10;22.30;99.90
1123;DHT22;548;48.778;9.252;2022-08-19T02:07:38;22.20;99.90
1123;DHT22;548;48.778;9.252;2022-08-19T02:10:08;22.20;99.90
1123;DHT22;548;48.778;9.252;2022-08-19T02:12:36;22.30;99.90
1123;DHT22;548;48.778;9.252;2022-08-19T02:15:04;22.10;99.90
1123;DHT22;548;48.778;9.252;2022-08-19T02:17:33;22.10;99.90
1123;DHT22;548;48.778;9.252;2022-08-19T02:19:59;22.10;99.90
1123;DHT22;548;48.778;9.252;2022-08-19T02:22:26;22.00;99.90
1123;DHT22;548;48.778;9.252;2022-08-19T02:24:53;22.00;99.90
1123;DHT22;548;48.778;9.252;2022-08-19T02:27:20;22.00;99.90
1123;DHT22;548;48.778;9.252;2022-08-19T02:29:48;22.00;99.90
1123;DHT22;548;48.778;9.252;2022-08-19T02:32:17;22.00;99.90
1123;DHT22;548;48.778;9.252;2022-08-19T02:34:44;22.00;99.90
1123;DHT22;548;48.778;9.252;2022-08-19T02:37:11;22.00;99.90
1123;DHT22;548;48.778;9.252;2022-08-19T02:39:52;22.00;99.90
1123;DHT22;548;48.778;9.252;2022-08-19T02:42:19;22.00;99.90
1123;DHT22;548;48.778;9.252;2022-08-19T02:44:46;21.90;99.90
1123;DHT22;548;48.778;9.252;2022-08-19T02:47:13;21.90;99.90
1123;DHT22;548;48.778;9.252;2022-08-19T02:49:41;21.90;99.90
1123;DHT22;548;48.778;9.252;2022-08-19T02:52:08;21.90;99.90
1123;DHT22;548;48.778;9.252;2022-08-19T02:54:36;21.80;99.90
1123;DHT22;548;48.778;9.252;2022-08-19T02:57:04;21.80;99.90
1123;DHT22;548;48.778;9.252;2022-08-19T02:59:31;21.70;99.90
1123;DHT22;548;48.778;9.252;2022-08-19T03:01:58;21.60;99.90
1123;DHT22;548;48.778;9.252;2022-08-19T03:04:24;21.60;99.90
1123;DHT22;548;48.778;9.252;2022-08-19T03:06:52;21.50;99.90
1123;DHT22;548;48.778;9.252;2022-08-19T03:09:20;21.50;99.90
1123;DHT22;548;48.778;9.252;2022-08-19T03:11:47;21.50;99.90
1123;DHT22;548;48.778;9.252;2022-08-19T03:14:14;21.50;99.90
1123;DHT22;548;48.778;9.252;2022-08-19T03:16:45;21.40;99.90
1123;DHT22;548;48.778;9.252;2022-08-19T03:19:12;21.40;99.90
1123;DHT22;548;48.778;9.252;2022-08-19T03:21:39;21.40;99.90
1123;DHT22;548;48.778;9.252;2022-08-19T03:24:08;21.40;99.90
1123;DHT22;548;48.778;9.252;2022-08-19T03:26:39;21.40;99.90
1123;DHT22;548;48.778;9.252;2022-08-19T03:29:06;21.40;99.90
1123;DHT22;548;48.778;9.252;2022-08-19T03:31:34;21.40;99.90
1123;DHT22;548;48.778;9.252;2022-08-19T03:34:00;21.40;99.90
1123;DHT22;548;48.778;9.252;2022-08-19T03:36:27;21.40;99.90
1123;DHT22;548;48.778;9.252;2022-08-19T03:38:55;21.40;99.90
1123;DHT22;548;48.778;9.252;2022-08-19T03:41:25;21.40;99.90
1123;DHT22;548;48.778;9.252;2022-08-19T03:43:53;21.40;99.90
1123;DHT22;548;48.778;9.252;2022-08-19T03:46:24;21.40;99.90
1123;DHT22;548;48.778;9.252;2022-08-19T03:48:53;21.40;99.90
1123;DHT22;548;48.778;9.252;2022-08-19T03:51:23;21.30;99.90
1123;DHT22;548;48.778;9.252;2022-08-19T03:53:50;21.30;99.90
1123;DHT22;548;48.778;9.252;2022-08-19T03:56:17;21.30;99.90
1123;DHT22;548;48.778;9.252;2022-08-19T03:58:46;21.20;99.90
1123;DHT22;548;48.778;9.252;2022-08-19T04:01:18;21.20;99.90
1123;DHT22;548;48.778;9.252;2022-08-19T04:03:45;21.20;99.90
1123;DHT22;548;48.778;9.252;2022-08-19T04:06:13;21.20;99.90
1123;DHT22;548;48.778;9.252;2022-08-19T04:08:40;21.20;99.90
1123;DHT22;548;48.778;9.252;2022-08-19T04:11:07;21.20;99.90
1123;DHT22;548;48.778;9.252;2022-08-19T04:13:34;21.20;99.90
1123;DHT22;548;48.778;9.252;2022-08-19T04:16:03;21.30;99.90
1123;DHT22;548;48.778;9.252;2022-08-19T04:18:29;21.20;99.90
1123;DHT22;548;48.778;9.252;2022-08-19T04:20:56;21.20;99.90
1123;DHT22;548;48.778;9.252;2022-08-19T04:23:23;21.20;99.90
1123;DHT22;548;48.778;9.252;2022-08-19T04:25:50;21.10;99.90
1123;DHT22;548;48.778;9.252;2022-08-19T04:28:17;21.20;99.90
1123;DHT22;548;48.778;9.252;2022-08-19T04:30:46;21.20;99.90
1123;DHT22;548;48.778;9.252;2022-08-19T04:33:17;21.20;99.90
1123;DHT22;548;48.778;9.252;2022-08-19T04:35:46;21.20;99.90
1123;DHT22;548;48.778;9.252;2022-08-19T04:38:15;21.20;99.90
1123;DHT22;548;48.778;9.252;2022-08-19T04:40:43;21.20;99.90
1123;DHT22;548;48.778;9.252;2022-08-19T04:43:27;21.20;99.90
1123;DHT22;548;48.778;9.252;2022-08-19T04:45:54;21.30;99.90
1123;DHT22;548;48.778;9.252;2022-08-19T04:48:23;21.40;99.90
1123;DHT22;548;48.778;9.252;2022-08-19T04:50:52;21.30;99.90
1123;DHT22;548;48.778;9.252;2022-08-19T04:53:23;21.30;99.90
1123;DHT22;548;48.778;9.252;2022-08-19T04:55:49;21.30;99.90
1123;DHT22;548;48.778;9.252;2022-08-19T04:58:16;21.30;99.90
1123;DHT22;548;48.778;9.252;2022-08-19T05:00:43;21.20;99.90
1123;DHT22;548;48.778;9.252;2022-08-19T05:03:10;21.30;99.90
1123;DHT22;548;48.778;9.252;2022-08-19T05:05:40;21.30;99.90
1123;DHT22;548;48.778;9.252;2022-08-19T05:08:07;21.30;99.90
1123;DHT22;548;48.778;9.252;2022-08-19T05:10:35;21.30;99.90
1123;DHT22;548;48.778;9.252;2022-08-19T05:13:02;21.40;99.90
1123;DHT22;548;48.778;9.252;2022-08-19T05:15:29;21.40;99.90
1123;DHT22;548;48.778;9.252;2022-08-19T05:17:55;21.40;99.90
1123;DHT22;548;48.778;9.252;2022-08-19T05:20:41;21.50;99.90
1123;DHT22;548;48.778;9.252;2022-08-19T05:23:26;21.50;99.90
1123;DHT22;548;48.778;9.252;2022-08-19T05:25:52;21.50;99.90
1123;DHT22;548;48.778;9.252;2022-08-19T05:28:19;21.60;99.90
1123;DHT22;548;48.778;9.252;2022-08-19T05:30:46;21.60;99.90
1123;DHT22;548;48.778;9.252;2022-08-19T05:33:13;21.60;99.90
1123;DHT22;548;48.778;9.252;2022-08-19T05:35:41;21.60;99.90
1123;DHT22;548;48.778;9.252;2022-08-19T05:38:09;21.60;99.90
1123;DHT22;548;48.778;9.252;2022-08-19T05:40:37;21.60;99.90
1123;DHT22;548;48.778;9.252;2022-08-19T05:43:06;21.60;99.90
1123;DHT22;548;48.778;9.252;2022-08-19T05:45:38;21.50;99.90
1123;DHT22;548;48.778;9.252;2022-08-19T05:48:05;21.50;99.90
1123;DHT22;548;48.778;9.252;2022-08-19T05:50:32;21.50;99.90
1123;DHT22;548;48.778;9.252;2022-08-19T05:53:00;21.50;99.90
1123;DHT22;548;48.778;9.252;2022-08-19T05:55:26;21.50;99.90
1123;DHT22;548;48.778;9.252;2022-08-19T05:57:53;21.50;99.90
1123;DHT22;548;48.778;9.252;2022-08-19T06:00:20;21.50;99.90
1123;DHT22;548;48.778;9.252;2022-08-19T06:02:46;21.60;99.90
1123;DHT22;548;48.778;9.252;2022-08-19T06:05:13;21.60;99.90
1123;DHT22;548;48.778;9.252;2022-08-19T06:07:40;21.50;99.90
1123;DHT22;548;48.778;9.252;2022-08-19T06:10:11;21.30;99.90
1123;DHT22;548;48.778;9.252;2022-08-19T06:12:38;21.10;99.90
1123;DHT22;548;48.778;9.252;2022-08-19T06:15:07;20.80;99.90
1123;DHT22;548;48.778;9.252;2022-08-19T06:17:34;20.60;99.90
1123;DHT22;548;48.778;9.252;2022-08-19T06:20:01;20.40;99.90
1123;DHT22;548;48.778;9.252;2022-08-19T06:22:28;20.30;99.90
1123;DHT22;548;48.778;9.252;2022-08-19T06:24:55;20.20;99.90
1123;DHT22;548;48.778;9.252;2022-08-19T06:27:24;20.10;99.90
1123;DHT22;548;48.778;9.252;2022-08-19T06:29:50;20.00;99.90
1123;DHT22;548;48.778;9.252;2022-08-19T06:34:49;19.90;99.90
1123;DHT22;548;48.778;9.252;2022-08-19T06:37:17;19.80;99.90
1123;DHT22;548;48.778;9.252;2022-08-19T06:39:45;20.00;99.90
1123;DHT22;548;48.778;9.252;2022-08-19T06:42:12;19.80;99.90
1123;DHT22;548;48.778;9.252;2022-08-19T06:44:44;19.70;99.90
1123;DHT22;548;48.778;9.252;2022-08-19T06:47:13;19.70;99.90
1123;DHT22;548;48.778;9.252;2022-08-19T06:49:40;19.80;99.90
1123;DHT22;548;48.778;9.252;2022-08-19T06:52:07;19.80;99.90
1123;DHT22;548;48.778;9.252;2022-08-19T06:54:37;19.80;99.90
1123;DHT22;548;48.778;9.252;2022-08-19T06:57:04;19.90;99.90
1123;DHT22;548;48.778;9.252;2022-08-19T06:59:32;20.00;99.90
1123;DHT22;548;48.778;9.252;2022-08-19T07:02:03;20.10;99.90
1123;DHT22;548;48.778;9.252;2022-08-19T07:04:35;20.20;99.90
1123;DHT22;548;48.778;9.252;2022-08-19T07:07:07;20.70;99.90
1123;DHT22;548;48.778;9.252;2022-08-19T07:09:36;20.60;99.90
1123;DHT22;548;48.778;9.252;2022-08-19T07:12:04;20.70;99.90
1123;DHT22;548;48.778;9.252;2022-08-19T07:14:32;20.90;99.90
1123;DHT22;548;48.778;9.252;2022-08-19T07:17:05;21.10;99.90
1123;DHT22;548;48.778;9.252;2022-08-19T07:19:33;21.30;99.90
1123;DHT22;548;48.778;9.252;2022-08-19T07:22:02;21.40;99.90
1123;DHT22;548;48.778;9.252;2022-08-19T07:24:30;21.40;99.90
1123;DHT22;548;48.778;9.252;2022-08-19T07:27:00;21.40;99.90
1123;DHT22;548;48.778;9.252;2022-08-19T07:29:29;21.30;99.90
1123;DHT22;548;48.778;9.252;2022-08-19T07:31:56;21.10;99.90
1123;DHT22;548;48.778;9.252;2022-08-19T07:34:26;20.90;99.90
1123;DHT22;548;48.778;9.252;2022-08-19T07:36:53;20.80;99.90
1123;DHT22;548;48.778;9.252;2022-08-19T07:39:22;20.70;99.90
1123;DHT22;548;48.778;9.252;2022-08-19T07:41:49;20.60;99.90
1123;DHT22;548;48.778;9.252;2022-08-19T07:44:17;20.50;99.90
1123;DHT22;548;48.778;9.252;2022-08-19T07:46:48;20.40;99.90
1123;DHT22;548;48.778;9.252;2022-08-19T07:49:15;20.30;99.90
1123;DHT22;548;48.778;9.252;2022-08-19T07:51:47;20.30;99.90
1123;DHT22;548;48.778;9.252;2022-08-19T07:54:14;20.20;99.90
1123;DHT22;548;48.778;9.252;2022-08-19T07:56:41;20.10;99.90
1123;DHT22;548;48.778;9.252;2022-08-19T07:59:08;20.00;99.90
1123;DHT22;548;48.778;9.252;2022-08-19T08:01:36;19.90;99.90
1123;DHT22;548;48.778;9.252;2022-08-19T08:04:06;19.80;99.90
1123;DHT22;548;48.778;9.252;2022-08-19T08:06:52;19.70;99.90
1123;DHT22;548;48.778;9.252;2022-08-19T08:09:39;19.70;99.90
1123;DHT22;548;48.778;9.252;2022-08-19T08:12:09;19.70;99.90
1123;DHT22;548;48.778;9.252;2022-08-19T08:14:38;19.80;99.90
1123;DHT22;548;48.778;9.252;2022-08-19T08:17:08;19.80;99.90
1123;DHT22;548;48.778;9.252;2022-08-19T08:19:36;19.80;99.90
1123;DHT22;548;48.778;9.252;2022-08-19T08:22:04;19.90;99.90
1123;DHT22;548;48.778;9.252;2022-08-19T08:24:33;19.90;99.90
1123;DHT22;548;48.778;9.252;2022-08-19T08:27:01;19.90;99.90
1123;DHT22;548;48.778;9.252;2022-08-19T08:29:30;19.90;99.90
1123;DHT22;548;48.778;9.252;2022-08-19T08:31:57;19.90;99.90
1123;DHT22;548;48.778;9.252;2022-08-19T08:34:24;20.00;99.90
1123;DHT22;548;48.778;9.252;2022-08-19T08:36:50;19.90;99.90
1123;DHT22;548;48.778;9.252;2022-08-19T08:39:20;20.00;99.90
1123;DHT22;548;48.778;9.252;2022-08-19T08:41:51;20.10;99.90
1123;DHT22;548;48.778;9.252;2022-08-19T08:44:22;20.10;99.90
1123;DHT22;548;48.778;9.252;2022-08-19T08:46:51;20.20;99.90
1123;DHT22;548;48.778;9.252;2022-08-19T08:49:28;20.20;99.90
1123;DHT22;548;48.778;9.252;2022-08-19T08:52:00;20.50;99.90
1123;DHT22;548;48.778;9.252;2022-08-19T08:54:33;20.60;99.90
1123;DHT22;548;48.778;9.252;2022-08-19T08:57:04;20.70;99.90
1123;DHT22;548;48.778;9.252;2022-08-19T08:59:35;20.90;99.90
1123;DHT22;548;48.778;9.252;2022-08-19T09:02:03;21.00;99.90
1123;DHT22;548;48.778;9.252;2022-08-19T09:04:30;21.10;99.90
1123;DHT22;548;48.778;9.252;2022-08-19T09:07:15;21.20;99.90
1123;DHT22;548;48.778;9.252;2022-08-19T09:09:48;21.30;99.90
1123;DHT22;548;48.778;9.252;2022-08-19T09:12:19;21.30;99.90
1123;DHT22;548;48.778;9.252;2022-08-19T09:14:51;21.20;99.90
1123;DHT22;548;48.778;9.252;2022-08-19T09:17:22;21.10;99.90
1123;DHT22;548;48.778;9.252;2022-08-19T09:19:58;21.10;99.90
1123;DHT22;548;48.778;9.252;2022-08-19T09:22:30;21.10;99.90
1123;DHT22;548;48.778;9.252;2022-08-19T09:24:58;21.00;99.90
1123;DHT22;548;48.778;9.252;2022-08-19T09:27:25;21.00;99.90
1123;DHT22;548;48.778;9.252;2022-08-19T09:29:53;20.90;99.90
1123;DHT22;548;48.778;9.252;2022-08-19T09:32:20;20.90;99.90
1123;DHT22;548;48.778;9.252;2022-08-19T09:34:47;20.90;99.90
1123;DHT22;548;48.778;9.252;2022-08-19T09:37:14;20.80;99.90
1123;DHT22;548;48.778;9.252;2022-08-19T09:39:41;20.80;99.90
1123;DHT22;548;48.778;9.252;2022-08-19T09:42:09;20.70;99.90
1123;DHT22;548;48.778;9.252;2022-08-19T09:44:39;20.70;99.90
1123;DHT22;548;48.778;9.252;2022-08-19T09:47:06;20.60;99.90
1123;DHT22;548;48.778;9.252;2022-08-19T09:49:33;20.60;99.90
1123;DHT22;548;48.778;9.252;2022-08-19T09:52:00;20.60;99.90
1123;DHT22;548;48.778;9.252;2022-08-19T09:54:27;20.50;99.90
1123;DHT22;548;48.778;9.252;2022-08-19T09:56:54;20.60;99.90
1123;DHT22;548;48.778;9.252;2022-08-19T09:59:22;20.60;99.90
1123;DHT22;548;48.778;9.252;2022-08-19T10:01:49;20.50;99.90
1123;DHT22;548;48.778;9.252;2022-08-19T10:04:16;20.50;99.90
1123;DHT22;548;48.778;9.252;2022-08-19T10:06:43;20.50;99.90
1123;DHT22;548;48.778;9.252;2022-08-19T10:09:10;20.40;99.90
1123;DHT22;548;48.778;9.252;2022-08-19T10:11:39;20.30;99.90
1123;DHT22;548;48.778;9.252;2022-08-19T10:14:07;20.30;99.90
1123;DHT22;548;48.778;9.252;2022-08-19T10:16:37;20.30;99.90
1123;DHT22;548;48.778;9.252;2022-08-19T10:19:04;20.40;99.90
1123;DHT22;548;48.778;9.252;2022-08-19T10:21:32;20.40;99.90
1123;DHT22;548;48.778;9.252;2022-08-19T10:24:01;20.50;99.90
1123;DHT22;548;48.778;9.252;2022-08-19T10:26:31;20.50;99.90
1123;DHT22;548;48.778;9.252;2022-08-19T10:28:58;20.50;99.90
1123;DHT22;548;48.778;9.252;2022-08-19T10:31:30;20.60;99.90
1123;DHT22;548;48.778;9.252;2022-08-19T10:33:59;20.60;99.90
1123;DHT22;548;48.778;9.252;2022-08-19T10:36:29;20.70;99.90
1123;DHT22;548;48.778;9.252;2022-08-19T10:38:59;20.90;99.90
1123;DHT22;548;48.778;9.252;2022-08-19T10:41:29;21.00;99.90
1123;DHT22;548;48.778;9.252;2022-08-19T10:43:58;20.90;99.90
1123;DHT22;548;48.778;9.252;2022-08-19T10:46:26;20.70;99.90
1123;DHT22;548;48.778;9.252;2022-08-19T10:48:54;20.60;99.90
1123;DHT22;548;48.778;9.252;2022-08-19T10:51:22;20.70;99.90
1123;DHT22;548;48.778;9.252;2022-08-19T10:54:06;20.70;99.90
1123;DHT22;548;48.778;9.252;2022-08-19T10:56:34;20.70;99.90
1123;DHT22;548;48.778;9.252;2022-08-19T10:59:20;20.70;99.90
1123;DHT22;548;48.778;9.252;2022-08-19T11:01:47;20.40;99.90
1123;DHT22;548;48.778;9.252;2022-08-19T11:04:14;20.40;99.90
1123;DHT22;548;48.778;9.252;2022-08-19T11:06:45;20.40;99.90
1123;DHT22;548;48.778;9.252;2022-08-19T11:09:13;20.30;99.90
1123;DHT22;548;48.778;9.252;2022-08-19T11:11:40;20.20;99.90
1123;DHT22;548;48.778;9.252;2022-08-19T11:14:08;20.20;99.90
1123;DHT22;548;48.778;9.252;2022-08-19T11:16:35;20.10;99.90
1123;DHT22;548;48.778;9.252;2022-08-19T11:19:03;20.10;99.90
1123;DHT22;548;48.778;9.252;2022-08-19T11:21:32;20.10;99.90
1123;DHT22;548;48.778;9.252;2022-08-19T11:24:03;20.10;99.90
1123;DHT22;548;48.778;9.252;2022-08-19T11:26:31;20.20;99.90
1123;DHT22;548;48.778;9.252;2022-08-19T11:28:59;20.20;99.90
1123;DHT22;548;48.778;9.252;2022-08-19T11:31:28;20.20;99.90
1123;DHT22;548;48.778;9.252;2022-08-19T11:33:56;20.30;99.90
1123;DHT22;548;48.778;9.252;2022-08-19T11:36:23;20.30;99.90
1123;DHT22;548;48.778;9.252;2022-08-19T11:38:49;20.30;99.90
1123;DHT22;548;48.778;9.252;2022-08-19T11:41:20;20.30;99.90
1123;DHT22;548;48.778;9.252;2022-08-19T11:43:48;20.30;99.90
1123;DHT22;548;48.778;9.252;2022-08-19T11:46:15;20.30;99.90
1123;DHT22;548;48.778;9.252;2022-08-19T11:48:43;20.40;99.90
1123;DHT22;548;48.778;9.252;2022-08-19T11:51:15;20.50;99.90
1123;DHT22;548;48.778;9.252;2022-08-19T11:53:43;20.40;99.90
1123;DHT22;548;48.778;9.252;2022-08-19T11:56:11;20.30;99.90
1123;DHT22;548;48.778;9.252;2022-08-19T11:58:40;20.40;99.90
1123;DHT22;548;48.778;9.252;2022-08-19T12:01:07;20.40;99.90
1123;DHT22;548;48.778;9.252;2022-08-19T12:03:36;20.50;99.90
1123;DHT22;548;48.778;9.252;2022-08-19T12:06:08;20.40;99.90
1123;DHT22;548;48.778;9.252;2022-08-19T12:08:35;20.40;99.90
1123;DHT22;548;48.778;9.252;2022-08-19T12:11:02;20.40;99.90
1123;DHT22;548;48.778;9.252;2022-08-19T12:13:29;20.40;99.90
1123;DHT22;548;48.778;9.252;2022-08-19T12:15:57;20.30;99.90
1123;DHT22;548;48.778;9.252;2022-08-19T12:18:24;20.30;99.90
1123;DHT22;548;48.778;9.252;2022-08-19T12:20:52;20.30;99.90
1123;DHT22;548;48.778;9.252;2022-08-19T12:23:20;20.30;99.90
1123;DHT22;548;48.778;9.252;2022-08-19T12:25:48;20.30;99.90
1123;DHT22;548;48.778;9.252;2022-08-19T12:28:17;20.40;99.90
1123;DHT22;548;48.778;9.252;2022-08-19T12:30:44;20.40;99.90
1123;DHT22;548;48.778;9.252;2022-08-19T12:33:12;20.40;99.90
1123;DHT22;548;48.778;9.252;2022-08-19T12:35:40;20.40;99.90
1123;DHT22;548;48.778;9.252;2022-08-19T12:38:07;20.40;99.90
1123;DHT22;548;48.778;9.252;2022-08-19T12:40:34;20.40;99.90
1123;DHT22;548;48.778;9.252;2022-08-19T12:43:01;20.40;99.90
1123;DHT22;548;48.778;9.252;2022-08-19T12:45:28;20.40;99.90
1123;DHT22;548;48.778;9.252;2022-08-19T12:47:54;20.40;99.90
1123;DHT22;548;48.778;9.252;2022-08-19T12:50:23;20.50;99.90
1123;DHT22;548;48.778;9.252;2022-08-19T12:52:50;20.60;99.90
1123;DHT22;548;48.778;9.252;2022-08-19T12:55:17;20.60;99.90
1123;DHT22;548;48.778;9.252;2022-08-19T12:57:45;20.70;99.90
1123;DHT22;548;48.778;9.252;2022-08-19T13:00:15;20.80;99.90
1123;DHT22;548;48.778;9.252;2022-08-19T13:02:44;21.00;99.90
1123;DHT22;548;48.778;9.252;2022-08-19T13:05:13;21.00;99.90
1123;DHT22;548;48.778;9.252;2022-08-19T13:07:42;21.10;99.90
1123;DHT22;548;48.778;9.252;2022-08-19T13:10:12;21.10;99.90
1123;DHT22;548;48.778;9.252;2022-08-19T13:12:41;21.10;99.90
1123;DHT22;548;48.778;9.252;2022-08-19T13:15:08;21.00;99.90
1123;DHT22;548;48.778;9.252;2022-08-19T13:17:37;20.90;99.90
1123;DHT22;548;48.778;9.252;2022-08-19T13:20:05;20.90;99.90
1123;DHT22;548;48.778;9.252;2022-08-19T13:22:33;20.80;99.90
1123;DHT22;548;48.778;9.252;2022-08-19T13:25:02;20.80;99.90
1123;DHT22;548;48.778;9.252;2022-08-19T13:41:51;22.30;99.90
1123;DHT22;548;48.778;9.252;2022-08-19T13:44:20;20.50;99.90
1123;DHT22;548;48.778;9.252;2022-08-19T13:46:55;20.50;99.90
1123;DHT22;548;48.778;9.252;2022-08-19T13:50:05;20.30;99.90
1123;DHT22;548;48.778;9.252;2022-08-19T13:55:15;20.50;99.90
1123;DHT22;548;48.778;9.252;2022-08-19T13:57:51;20.50;99.90
1123;DHT22;548;48.778;9.252;2022-08-19T14:00:19;22.10;99.90
1123;DHT22;548;48.778;9.252;2022-08-19T14:02:47;20.40;99.90
1123;DHT22;548;48.778;9.252;2022-08-19T14:05:15;20.40;99.90
1123;DHT22;548;48.778;9.252;2022-08-19T14:07:42;20.30;99.90
1123;DHT22;548;48.778;9.252;2022-08-19T14:10:10;20.20;99.90
1123;DHT22;548;48.778;9.252;2022-08-19T14:12:38;20.10;99.90
1123;DHT22;548;48.778;9.252;2022-08-19T14:15:08;20.10;99.90
1123;DHT22;548;48.778;9.252;2022-08-19T14:17:37;20.00;99.90
1123;DHT22;548;48.778;9.252;2022-08-19T14:20:06;20.00;99.90
1123;DHT22;548;48.778;9.252;2022-08-19T14:22:35;20.00;99.90
1123;DHT22;548;48.778;9.252;2022-08-19T14:25:02;20.00;99.90
1123;DHT22;548;48.778;9.252;2022-08-19T14:27:32;20.00;99.90
1123;DHT22;548;48.778;9.252;2022-08-19T14:29:58;20.00;99.90
1123;DHT22;548;48.778;9.252;2022-08-19T14:32:26;20.00;99.90
1123;DHT22;548;48.778;9.252;2022-08-19T14:34:53;20.00;99.90
1123;DHT22;548;48.778;9.252;2022-08-19T14:37:20;20.00;99.90
1123;DHT22;548;48.778;9.252;2022-08-19T14:39:48;20.10;99.90
1123;DHT22;548;48.778;9.252;2022-08-19T14:42:14;20.20;99.90
1123;DHT22;548;48.778;9.252;2022-08-19T14:44:41;20.20;99.90
1123;DHT22;548;48.778;9.252;2022-08-19T14:47:09;20.20;99.90
1123;DHT22;548;48.778;9.252;2022-08-19T14:49:37;20.30;99.90
1123;DHT22;548;48.778;9.252;2022-08-19T14:52:05;20.40;99.90
1123;DHT22;548;48.778;9.252;2022-08-19T14:54:32;20.30;99.90
1123;DHT22;548;48.778;9.252;2022-08-19T14:56:59;20.40;99.90
1123;DHT22;548;48.778;9.252;2022-08-19T14:59:25;20.30;99.90
1123;DHT22;548;48.778;9.252;2022-08-19T15:01:52;20.30;99.90
1123;DHT22;548;48.778;9.252;2022-08-19T15:04:19;20.40;99.90
1123;DHT22;548;48.778;9.252;2022-08-19T15:06:47;20.50;99.90
1123;DHT22;548;48.778;9.252;2022-08-19T15:09:13;20.50;99.90
1123;DHT22;548;48.778;9.252;2022-08-19T15:11:40;20.70;99.90
1123;DHT22;548;48.778;9.252;2022-08-19T15:14:08;20.70;99.90
1123;DHT22;548;48.778;9.252;2022-08-19T15:16:35;20.90;99.90
1123;DHT22;548;48.778;9.252;2022-08-19T15:19:07;21.00;99.90
1123;DHT22;548;48.778;9.252;2022-08-19T15:21:34;21.10;99.90
1123;DHT22;548;48.778;9.252;2022-08-19T15:24:03;21.30;99.90
1123;DHT22;548;48.778;9.252;2022-08-19T15:26:30;21.40;99.90
1123;DHT22;548;48.778;9.252;2022-08-19T15:28:58;21.60;99.90
1123;DHT22;548;48.778;9.252;2022-08-19T15:31:25;21.60;99.90
1123;DHT22;548;48.778;9.252;2022-08-19T15:33:54;21.60;99.90
1123;DHT22;548;48.778;9.252;2022-08-19T15:36:21;21.70;99.90
1123;DHT22;548;48.778;9.252;2022-08-19T15:38:48;21.70;99.90
1123;DHT22;548;48.778;9.252;2022-08-19T15:41:20;21.70;99.90
1123;DHT22;548;48.778;9.252;2022-08-19T15:43:53;21.70;99.90
1123;DHT22;548;48.778;9.252;2022-08-19T15:46:25;21.60;99.90
1123;DHT22;548;48.778;9.252;2022-08-19T15:48:53;21.70;99.90
1123;DHT22;548;48.778;9.252;2022-08-19T15:51:20;21.80;99.90
1123;DHT22;548;48.778;9.252;2022-08-19T15:53:47;21.70;99.90
1123;DHT22;548;48.778;9.252;2022-08-19T15:56:15;21.70;99.90
1123;DHT22;548;48.778;9.252;2022-08-19T15:58:43;21.60;99.90
1123;DHT22;548;48.778;9.252;2022-08-19T16:01:28;21.70;99.90
1123;DHT22;548;48.778;9.252;2022-08-19T16:04:09;21.70;99.90
1123;DHT22;548;48.778;9.252;2022-08-19T16:06:55;21.80;99.90
1123;DHT22;548;48.778;9.252;2022-08-19T16:09:24;21.80;99.90
1123;DHT22;548;48.778;9.252;2022-08-19T16:11:53;21.80;99.90
1123;DHT22;548;48.778;9.252;2022-08-19T16:14:22;21.80;99.90
1123;DHT22;548;48.778;9.252;2022-08-19T16:16:49;21.90;99.90
1123;DHT22;548;48.778;9.252;2022-08-19T16:19:17;21.90;99.90
1123;DHT22;548;48.778;9.252;2022-08-19T16:21:46;21.80;99.90
1123;DHT22;548;48.778;9.252;2022-08-19T16:24:15;21.70;99.90
1123;DHT22;548;48.778;9.252;2022-08-19T16:26:43;21.80;99.90
1123;DHT22;548;48.778;9.252;2022-08-19T16:29:11;21.80;99.90
1123;DHT22;548;48.778;9.252;2022-08-19T16:31:41;21.90;99.90
1123;DHT22;548;48.778;9.252;2022-08-19T16:34:07;21.90;99.90
1123;DHT22;548;48.778;9.252;2022-08-19T16:36:34;21.80;99.90
1123;DHT22;548;48.778;9.252;2022-08-19T16:39:01;21.80;99.90
1123;DHT22;548;48.778;9.252;2022-08-19T16:41:28;21.60;99.90
1123;DHT22;548;48.778;9.252;2022-08-19T16:43:54;21.60;99.90
1123;DHT22;548;48.778;9.252;2022-08-19T16:46:22;21.70;99.90